sensor_id;sensor_type;location;lat;lon;timestamp;pressure;altitude;pressure_sealevel;temperature;humidity
20037;BME280;10179;42.640;23.312;2022-10-26T00:01:11;94173.69;;;20.80;41.43
20037;BME280;10179;42.640;23.312;2022-10-26T00:03:38;94174.53;;;20.76;41.43
20037;BME280;10179;42.640;23.312;2022-10-26T00:06:06;94148.47;;;20.57;41.24
20037;BME280;10179;42.640;23.312;2022-10-26T00:08:32;94178.53;;;20.73;41.42
20037;BME280;10179;42.640;23.312;2022-10-26T00:10:57;94170.81;;;20.71;41.56
20037;BME280;10179;42.640;23.312;2022-10-26T00:13:23;94164.16;;;20.69;41.45
20037;BME280;10179;42.640;23.312;2022-10-26T00:15:48;94175.38;;;20.66;41.46
20037;BME280;10179;42.640;23.312;2022-10-26T00:18:14;94180.47;;;20.62;41.37
20037;BME280;10179;42.640;23.312;2022-10-26T00:20:39;94181.53;;;20.61;41.54
20037;BME280;10179;42.640;23.312;2022-10-26T00:23:04;94074.00;;;19.96;41.37
20037;BME280;10179;42.640;23.312;2022-10-26T00:25:30;94049.00;;;19.71;41.59
20037;BME280;10179;42.640;23.312;2022-10-26T00:27:55;94178.09;;;20.56;41.40
20037;BME280;10179;42.640;23.312;2022-10-26T00:30:21;94143.25;;;20.16;41.26
20037;BME280;10179;42.640;23.312;2022-10-26T00:32:46;94172.00;;;20.50;41.38
20037;BME280;10179;42.640;23.312;2022-10-26T00:35:12;94181.56;;;20.46;41.52
20037;BME280;10179;42.640;23.312;2022-10-26T00:37:37;94187.47;;;20.43;41.54
20037;BME280;10179;42.640;23.312;2022-10-26T00:40:03;94066.88;;;19.71;41.83
20037;BME280;10179;42.640;23.312;2022-10-26T00:42:28;94164.00;;;20.35;41.69
20037;BME280;10179;42.640;23.312;2022-10-26T00:44:54;94172.25;;;20.38;41.96
20037;BME280;10179;42.640;23.312;2022-10-26T00:49:57;94174.16;;;20.33;41.67
20037;BME280;10179;42.640;23.312;2022-10-26T00:52:23;94164.56;;;20.26;41.89
20037;BME280;10179;42.640;23.312;2022-10-26T00:54:50;94123.81;;;20.00;41.89
20037;BME280;10179;42.640;23.312;2022-10-26T00:57:17;94134.75;;;20.04;42.08
20037;BME280;10179;42.640;23.312;2022-10-26T00:59:43;94154.72;;;20.22;42.10
20037;BME280;10179;42.640;23.312;2022-10-26T01:02:09;94158.72;;;20.19;41.93
20037;BME280;10179;42.640;23.312;2022-10-26T01:04:35;94129.97;;;20.01;42.07
20037;BME280;10179;42.640;23.312;2022-10-26T01:07:02;94133.16;;;20.08;41.95
20037;BME280;10179;42.640;23.312;2022-10-26T01:09:28;94151.25;;;20.16;41.83
20037;BME280;10179;42.640;23.312;2022-10-26T01:11:54;94149.69;;;20.15;41.75
20037;BME280;10179;42.640;23.312;2022-10-26T01:14:20;94045.56;;;19.50;41.62
20037;BME280;10179;42.640;23.312;2022-10-26T01:19:51;94144.88;;;20.12;41.50
20037;BME280;10179;42.640;23.312;2022-10-26T01:25:33;94151.25;;;20.16;41.44
20037;BME280;10179;42.640;23.312;2022-10-26T01:30:59;94151.84;;;20.08;41.39
20037;BME280;10179;42.640;23.312;2022-10-26T01:33:30;94151.84;;;20.08;41.49
20037;BME280;10179;42.640;23.312;2022-10-26T01:36:06;94156.09;;;20.09;41.48
20037;BME280;10179;42.640;23.312;2022-10-26T01:44:06;94131.84;;;19.95;41.51
20037;BME280;10179;42.640;23.312;2022-10-26T01:46:40;94112.41;;;19.79;41.68
20037;BME280;10179;42.640;23.312;2022-10-26T01:49:09;94077.28;;;19.57;41.95
20037;BME280;10179;42.640;23.312;2022-10-26T01:51:38;94107.09;;;19.79;42.05
20037;BME280;10179;42.640;23.312;2022-10-26T01:54:04;93997.47;;;19.06;41.87
20037;BME280;10179;42.640;23.312;2022-10-26T01:56:33;94103.91;;;19.77;41.88
20037;BME280;10179;42.640;23.312;2022-10-26T02:01:48;94022.19;;;19.32;41.98
20037;BME280;10179;42.640;23.312;2022-10-26T02:10:29;93957.53;;;18.91;41.88
20037;BME280;10179;42.640;23.312;2022-10-26T02:15:49;94133.69;;;20.05;41.69
20037;BME280;10179;42.640;23.312;2022-10-26T02:21:14;94138.25;;;19.99;41.72
20037;BME280;10179;42.640;23.312;2022-10-26T02:23:44;94142.78;;;19.99;41.89
20037;BME280;10179;42.640;23.312;2022-10-26T02:26:12;94148.66;;;19.96;42.12
20037;BME280;10179;42.640;23.312;2022-10-26T02:28:43;94150.81;;;19.94;42.23
20037;BME280;10179;42.640;23.312;2022-10-26T02:31:12;93786.81;;;17.61;42.40
20037;BME280;10179;42.640;23.312;2022-10-26T02:33:43;94092.19;;;19.53;42.29
20037;BME280;10179;42.640;23.312;2022-10-26T02:36:13;94166.81;;;19.73;42.49
20037;BME280;10179;42.640;23.312;2022-10-26T02:38:41;94159.09;;;19.77;42.61
20037;BME280;10179;42.640;23.312;2022-10-26T02:41:09;94045.91;;;19.13;42.76
20037;BME280;10179;42.640;23.312;2022-10-26T02:43:42;94050.41;;;19.13;42.34
20037;BME280;10179;42.640;23.312;2022-10-26T02:46:12;94133.25;;;19.62;42.77
20037;BME280;10179;42.640;23.312;2022-10-26T02:48:39;93951.13;;;18.35;42.74
20037;BME280;10179;42.640;23.312;2022-10-26T02:51:32;94148.16;;;19.68;42.90
20037;BME280;10179;42.640;23.312;2022-10-26T02:54:13;94072.78;;;19.22;42.92
20037;BME280;10179;42.640;23.312;2022-10-26T02:59:11;94151.34;;;19.50;43.25
20037;BME280;10179;42.640;23.312;2022-10-26T03:01:39;94149.50;;;19.45;43.52
20037;BME280;10179;42.640;23.312;2022-10-26T03:04:05;94151.91;;;19.42;43.64
20037;BME280;10179;42.640;23.312;2022-10-26T03:06:30;94146.03;;;19.40;43.74
20037;BME280;10179;42.640;23.312;2022-10-26T03:08:56;93854.41;;;17.12;43.59
20037;BME280;10179;42.640;23.312;2022-10-26T03:11:21;94157.22;;;19.37;43.80
20037;BME280;10179;42.640;23.312;2022-10-26T03:13:47;94129.00;;;19.10;43.87
20037;BME280;10179;42.640;23.312;2022-10-26T03:16:12;94172.66;;;19.29;43.97
20037;BME280;10179;42.640;23.312;2022-10-26T03:18:37;94107.66;;;18.74;44.20
20037;BME280;10179;42.640;23.312;2022-10-26T03:21:03;94064.16;;;18.28;44.55
20037;BME280;10179;42.640;23.312;2022-10-26T03:23:28;94171.53;;;18.84;44.84
20037;BME280;10179;42.640;23.312;2022-10-26T03:25:57;94076.09;;;18.20;45.18
20037;BME280;10179;42.640;23.312;2022-10-26T03:28:23;94188.31;;;18.85;45.12
20037;BME280;10179;42.640;23.312;2022-10-26T03:30:48;94095.22;;;18.12;45.06
20037;BME280;10179;42.640;23.312;2022-10-26T03:33:14;94162.34;;;18.45;45.68
20037;BME280;10179;42.640;23.312;2022-10-26T03:35:39;94197.53;;;18.57;45.77
20037;BME280;10179;42.640;23.312;2022-10-26T03:38:05;94195.34;;;18.49;46.32
20037;BME280;10179;42.640;23.312;2022-10-26T03:40:32;94172.38;;;18.27;46.31
20037;BME280;10179;42.640;23.312;2022-10-26T03:43:01;94164.34;;;18.12;46.64
20037;BME280;10179;42.640;23.312;2022-10-26T03:45:26;93709.25;;;15.18;46.61
20037;BME280;10179;42.640;23.312;2022-10-26T03:47:51;94186.78;;;17.84;46.68
20037;BME280;10179;42.640;23.312;2022-10-26T03:50:19;94164.75;;;17.88;47.16
20037;BME280;10179;42.640;23.312;2022-10-26T03:52:47;94098.00;;;17.37;47.34
20037;BME280;10179;42.640;23.312;2022-10-26T03:55:13;94183.34;;;17.83;47.81
20037;BME280;10179;42.640;23.312;2022-10-26T03:57:43;94194.25;;;17.87;47.87
20037;BME280;10179;42.640;23.312;2022-10-26T04:00:10;94171.91;;;17.51;48.32
20037;BME280;10179;42.640;23.312;2022-10-26T04:02:36;94193.44;;;17.54;49.05
20037;BME280;10179;42.640;23.312;2022-10-26T04:05:03;94198.22;;;17.52;49.17
20037;BME280;10179;42.640;23.312;2022-10-26T04:07:28;94199.53;;;17.50;49.25
20037;BME280;10179;42.640;23.312;2022-10-26T04:09:54;94198.72;;;17.49;49.40
20037;BME280;10179;42.640;23.312;2022-10-26T04:12:19;94191.00;;;17.48;49.46
20037;BME280;10179;42.640;23.312;2022-10-26T04:14:44;94192.53;;;17.38;49.43
20037;BME280;10179;42.640;23.312;2022-10-26T04:17:10;94201.63;;;17.48;49.52
20037;BME280;10179;42.640;23.312;2022-10-26T04:19:35;94201.63;;;17.48;49.83
20037;BME280;10179;42.640;23.312;2022-10-26T04:22:00;93904.69;;;15.58;49.97
20037;BME280;10179;42.640;23.312;2022-10-26T04:24:26;94207.50;;;17.55;49.88
20037;BME280;10179;42.640;23.312;2022-10-26T04:26:51;94149.47;;;17.31;49.84
20037;BME280;10179;42.640;23.312;2022-10-26T04:29:17;94203.09;;;17.65;49.86
20037;BME280;10179;42.640;23.312;2022-10-26T04:31:42;94194.09;;;17.72;50.01
20037;BME280;10179;42.640;23.312;2022-10-26T04:34:07;94209.84;;;17.78;49.87
20037;BME280;10179;42.640;23.312;2022-10-26T04:36:33;94180.09;;;17.76;49.36
20037;BME280;10179;42.640;23.312;2022-10-26T04:38:59;94197.44;;;17.89;49.38
20037;BME280;10179;42.640;23.312;2022-10-26T04:41:24;94199.28;;;17.83;49.26
20037;BME280;10179;42.640;23.312;2022-10-26T04:43:50;94162.16;;;17.61;49.21
20037;BME280;10179;42.640;23.312;2022-10-26T04:46:15;94206.25;;;17.95;49.11
20037;BME280;10179;42.640;23.312;2022-10-26T04:48:41;94209.97;;;17.94;48.85
20037;BME280;10179;42.640;23.312;2022-10-26T04:51:06;94187.25;;;17.76;48.87
20037;BME280;10179;42.640;23.312;2022-10-26T04:53:32;94205.69;;;17.87;48.97
20037;BME280;10179;42.640;23.312;2022-10-26T04:56:00;94006.09;;;16.57;49.31
20037;BME280;10179;42.640;23.312;2022-10-26T04:58:27;94216.81;;;17.84;49.49
20037;BME280;10179;42.640;23.312;2022-10-26T05:00:52;94153.75;;;17.37;49.54
20037;BME280;10179;42.640;23.312;2022-10-26T05:03:18;94204.22;;;17.75;49.43
20037;BME280;10179;42.640;23.312;2022-10-26T05:05:44;94190.56;;;17.61;49.46
20037;BME280;10179;42.640;23.312;2022-10-26T05:08:09;94098.28;;;17.09;49.47
20037;BME280;10179;42.640;23.312;2022-10-26T05:10:34;94224.28;;;17.87;49.40
20037;BME280;10179;42.640;23.312;2022-10-26T05:13:00;94221.13;;;17.91;49.90
20037;BME280;10179;42.640;23.312;2022-10-26T05:15:26;94226.16;;;17.92;49.73
20037;BME280;10179;42.640;23.312;2022-10-26T05:18:00;94178.94;;;17.67;49.96
20037;BME280;10179;42.640;23.312;2022-10-26T05:20:29;94187.00;;;17.77;50.06
20037;BME280;10179;42.640;23.312;2022-10-26T05:22:56;94216.94;;;18.05;49.92
20037;BME280;10179;42.640;23.312;2022-10-26T05:25:22;94197.47;;;17.94;49.82
20037;BME280;10179;42.640;23.312;2022-10-26T05:27:48;94170.63;;;17.91;49.81
20037;BME280;10179;42.640;23.312;2022-10-26T05:30:13;94161.59;;;17.97;49.65
20037;BME280;10179;42.640;23.312;2022-10-26T05:32:39;94234.72;;;18.47;49.62
20037;BME280;10179;42.640;23.312;2022-10-26T05:35:04;94246.50;;;18.61;49.30
20037;BME280;10179;42.640;23.312;2022-10-26T05:37:30;94243.38;;;18.74;48.97
20037;BME280;10179;42.640;23.312;2022-10-26T05:39:55;94252.22;;;18.90;48.89
20037;BME280;10179;42.640;23.312;2022-10-26T05:42:21;94253.06;;;19.06;48.48
20037;BME280;10179;42.640;23.312;2022-10-26T05:44:46;94246.44;;;19.24;48.11
20037;BME280;10179;42.640;23.312;2022-10-26T05:47:12;94242.97;;;19.34;47.90
20037;BME280;10179;42.640;23.312;2022-10-26T05:49:37;94225.44;;;19.53;47.62
20037;BME280;10179;42.640;23.312;2022-10-26T05:52:03;94256.94;;;19.87;46.73
20037;BME280;10179;42.640;23.312;2022-10-26T05:54:28;94261.16;;;20.03;46.32
20037;BME280;10179;42.640;23.312;2022-10-26T05:56:54;94156.16;;;19.43;45.76
20037;BME280;10179;42.640;23.312;2022-10-26T05:59:19;94272.88;;;20.17;45.40
20037;BME280;10179;42.640;23.312;2022-10-26T06:02:03;94264.34;;;20.31;45.52
20037;BME280;10179;42.640;23.312;2022-10-26T06:04:42;94160.94;;;19.71;45.00
20037;BME280;10179;42.640;23.312;2022-10-26T06:07:14;94274.16;;;20.66;45.03
20037;BME280;10179;42.640;23.312;2022-10-26T06:09:40;94278.63;;;20.86;44.38
20037;BME280;10179;42.640;23.312;2022-10-26T06:12:06;94269.44;;;21.07;43.97
20037;BME280;10179;42.640;23.312;2022-10-26T06:14:35;94250.47;;;21.09;43.62
20037;BME280;10179;42.640;23.312;2022-10-26T06:17:16;94247.47;;;21.20;43.12
20037;BME280;10179;42.640;23.312;2022-10-26T06:20:01;94192.81;;;21.03;42.72
20037;BME280;10179;42.640;23.312;2022-10-26T06:22:55;94282.38;;;21.84;42.49
20037;BME280;10179;42.640;23.312;2022-10-26T06:25:45;94283.91;;;21.90;42.16
20037;BME280;10179;42.640;23.312;2022-10-26T06:30:47;94290.94;;;22.20;41.61
20037;BME280;10179;42.640;23.312;2022-10-26T06:33:13;94293.78;;;22.29;40.87
20037;BME280;10179;42.640;23.312;2022-10-26T06:38:19;94297.19;;;22.39;41.10
20037;BME280;10179;42.640;23.312;2022-10-26T06:40:49;94294.22;;;22.41;40.70
20037;BME280;10179;42.640;23.312;2022-10-26T06:43:26;94293.81;;;22.53;40.56
20037;BME280;10179;42.640;23.312;2022-10-26T06:46:21;94292.06;;;22.67;40.75
20037;BME280;10179;42.640;23.312;2022-10-26T06:48:59;94224.50;;;22.27;40.20
20037;BME280;10179;42.640;23.312;2022-10-26T06:51:28;94289.94;;;22.93;39.86
20037;BME280;10179;42.640;23.312;2022-10-26T06:56:39;94230.69;;;22.71;38.68
20037;BME280;10179;42.640;23.312;2022-10-26T06:59:14;94137.88;;;22.18;38.72
20037;BME280;10179;42.640;23.312;2022-10-26T07:01:41;94309.13;;;23.24;38.88
20037;BME280;10179;42.640;23.312;2022-10-26T07:04:07;94306.09;;;23.31;39.11
20037;BME280;10179;42.640;23.312;2022-10-26T07:06:32;94308.56;;;23.46;38.59
20037;BME280;10179;42.640;23.312;2022-10-26T07:08:57;94236.38;;;23.12;37.88
20037;BME280;10179;42.640;23.312;2022-10-26T07:11:23;94308.97;;;23.77;37.68
20037;BME280;10179;42.640;23.312;2022-10-26T07:13:48;94312.72;;;23.95;37.60
20037;BME280;10179;42.640;23.312;2022-10-26T07:16:14;94305.63;;;24.04;37.12
20037;BME280;10179;42.640;23.312;2022-10-26T07:18:40;94283.88;;;23.87;37.13
20037;BME280;10179;42.640;23.312;2022-10-26T07:21:05;94260.47;;;23.74;37.19
20037;BME280;10179;42.640;23.312;2022-10-26T07:23:31;94267.94;;;23.77;37.09
20037;BME280;10179;42.640;23.312;2022-10-26T07:25:58;94281.47;;;23.86;37.07
20037;BME280;10179;42.640;23.312;2022-10-26T07:28:24;94280.78;;;23.80;37.33
20037;BME280;10179;42.640;23.312;2022-10-26T07:30:49;94186.25;;;23.13;37.22
20037;BME280;10179;42.640;23.312;2022-10-26T07:33:15;94310.31;;;23.94;37.52
20037;BME280;10179;42.640;23.312;2022-10-26T07:35:40;94312.31;;;23.88;37.35
20037;BME280;10179;42.640;23.312;2022-10-26T07:38:06;94363.19;;;23.93;37.43
20037;BME280;10179;42.640;23.312;2022-10-26T07:40:32;94210.38;;;23.31;37.46
20037;BME280;10179;42.640;23.312;2022-10-26T07:42:59;94282.50;;;23.71;37.50
20037;BME280;10179;42.640;23.312;2022-10-26T07:45:26;94319.03;;;23.86;37.81
20037;BME280;10179;42.640;23.312;2022-10-26T07:47:52;94315.66;;;23.80;37.69
20037;BME280;10179;42.640;23.312;2022-10-26T07:50:17;94306.88;;;23.74;37.91
20037;BME280;10179;42.640;23.312;2022-10-26T07:52:43;94295.34;;;23.74;37.99
20037;BME280;10179;42.640;23.312;2022-10-26T07:55:09;94309.53;;;23.93;37.61
20037;BME280;10179;42.640;23.312;2022-10-26T07:57:35;94303.59;;;23.96;37.64
20037;BME280;10179;42.640;23.312;2022-10-26T08:00:03;94260.75;;;23.72;37.44
20037;BME280;10179;42.640;23.312;2022-10-26T08:02:28;94306.03;;;24.12;37.31
20037;BME280;10179;42.640;23.312;2022-10-26T08:04:54;94220.22;;;23.74;37.08
20037;BME280;10179;42.640;23.312;2022-10-26T08:07:19;94294.94;;;24.32;36.91
20037;BME280;10179;42.640;23.312;2022-10-26T08:09:45;94309.47;;;24.31;36.89
20037;BME280;10179;42.640;23.312;2022-10-26T08:12:11;94303.69;;;24.24;37.15
20037;BME280;10179;42.640;23.312;2022-10-26T08:14:40;94287.91;;;24.03;37.21
20037;BME280;10179;42.640;23.312;2022-10-26T08:17:06;94303.25;;;24.17;37.30
20037;BME280;10179;42.640;23.312;2022-10-26T08:19:31;94274.91;;;24.11;37.09
20037;BME280;10179;42.640;23.312;2022-10-26T08:21:57;94308.31;;;24.37;36.96
20037;BME280;10179;42.640;23.312;2022-10-26T08:24:22;94288.69;;;24.23;36.78
20037;BME280;10179;42.640;23.312;2022-10-26T08:26:47;94283.47;;;24.13;36.60
20037;BME280;10179;42.640;23.312;2022-10-26T08:29:13;94304.84;;;24.18;37.36
20037;BME280;10179;42.640;23.312;2022-10-26T08:31:38;94279.72;;;23.95;37.19
20037;BME280;10179;42.640;23.312;2022-10-26T08:34:04;94305.38;;;24.20;37.30
20037;BME280;10179;42.640;23.312;2022-10-26T08:36:29;94182.13;;;23.39;36.97
20037;BME280;10179;42.640;23.312;2022-10-26T08:38:55;94306.03;;;24.12;37.20
20037;BME280;10179;42.640;23.312;2022-10-26T08:41:46;94306.94;;;24.21;37.17
20037;BME280;10179;42.640;23.312;2022-10-26T08:44:21;94300.88;;;24.15;37.36
20037;BME280;10179;42.640;23.312;2022-10-26T08:46:53;94252.53;;;24.01;37.12
20037;BME280;10179;42.640;23.312;2022-10-26T08:49:29;94290.41;;;24.33;36.67
20037;BME280;10179;42.640;23.312;2022-10-26T08:51:59;94262.72;;;24.32;36.26
20037;BME280;10179;42.640;23.312;2022-10-26T08:54:36;94308.78;;;24.58;36.19
20037;BME280;10179;42.640;23.312;2022-10-26T08:57:17;94287.91;;;24.36;36.11
20037;BME280;10179;42.640;23.312;2022-10-26T09:02:31;94301.50;;;24.59;35.93
20037;BME280;10179;42.640;23.312;2022-10-26T09:04:57;94019.34;;;22.93;35.81
20037;BME280;10179;42.640;23.312;2022-10-26T09:10:11;94311.78;;;24.98;34.82
20037;BME280;10179;42.640;23.312;2022-10-26T09:15:47;94312.75;;;24.61;34.71
20037;BME280;10179;42.640;23.312;2022-10-26T09:23:51;94310.00;;;24.93;33.79
20037;BME280;10179;42.640;23.312;2022-10-26T09:28:58;94307.78;;;24.54;34.32
20037;BME280;10179;42.640;23.312;2022-10-26T09:31:25;94295.78;;;24.46;34.36
20037;BME280;10179;42.640;23.312;2022-10-26T09:33:52;94306.09;;;24.39;33.94
20037;BME280;10179;42.640;23.312;2022-10-26T09:36:21;94293.44;;;24.59;33.95
20037;BME280;10179;42.640;23.312;2022-10-26T09:38:57;94311.97;;;24.74;33.68
20037;BME280;10179;42.640;23.312;2022-10-26T09:41:39;94277.09;;;24.41;32.94
20037;BME280;10179;42.640;23.312;2022-10-26T09:44:35;94304.78;;;24.56;33.15
20037;BME280;10179;42.640;23.312;2022-10-26T09:49:55;94298.03;;;24.39;33.05
20037;BME280;10179;42.640;23.312;2022-10-26T09:52:23;94279.63;;;24.19;33.57
20037;BME280;10179;42.640;23.312;2022-10-26T09:54:48;94138.38;;;23.25;33.86
20037;BME280;10179;42.640;23.312;2022-10-26T09:57:15;94279.19;;;24.12;34.13
20037;BME280;10179;42.640;23.312;2022-10-26T09:59:43;94296.16;;;24.26;34.06
20037;BME280;10179;42.640;23.312;2022-10-26T10:02:31;94288.00;;;24.31;33.96
20037;BME280;10179;42.640;23.312;2022-10-26T10:04:56;94223.81;;;23.83;34.08
20037;BME280;10179;42.640;23.312;2022-10-26T10:07:21;94271.06;;;24.17;33.82
20037;BME280;10179;42.640;23.312;2022-10-26T10:10:06;94191.00;;;23.72;33.52
20037;BME280;10179;42.640;23.312;2022-10-26T10:12:32;94283.19;;;24.28;33.85
20037;BME280;10179;42.640;23.312;2022-10-26T10:14:58;94278.56;;;24.34;33.85
20037;BME280;10179;42.640;23.312;2022-10-26T10:17:24;94246.47;;;24.10;33.92
20037;BME280;10179;42.640;23.312;2022-10-26T10:19:50;94235.63;;;24.01;34.06
20037;BME280;10179;42.640;23.312;2022-10-26T10:24:56;94249.00;;;24.20;34.34
20037;BME280;10179;42.640;23.312;2022-10-26T10:27:22;94235.22;;;24.08;34.03
20037;BME280;10179;42.640;23.312;2022-10-26T10:29:52;94267.88;;;24.28;33.75
20037;BME280;10179;42.640;23.312;2022-10-26T10:32:24;94239.59;;;24.03;33.81
20037;BME280;10179;42.640;23.312;2022-10-26T10:34:54;94253.09;;;23.98;34.18
20037;BME280;10179;42.640;23.312;2022-10-26T10:37:29;94269.41;;;24.02;34.40
20037;BME280;10179;42.640;23.312;2022-10-26T10:40:01;94265.06;;;24.06;34.49
20037;BME280;10179;42.640;23.312;2022-10-26T10:42:36;94256.13;;;24.11;34.61
20037;BME280;10179;42.640;23.312;2022-10-26T10:45:04;94161.19;;;23.41;34.96
20037;BME280;10179;42.640;23.312;2022-10-26T10:47:33;94262.16;;;24.02;35.01
20037;BME280;10179;42.640;23.312;2022-10-26T10:50:02;94233.97;;;23.86;35.11
20037;BME280;10179;42.640;23.312;2022-10-26T10:52:31;94253.53;;;24.05;35.00
20037;BME280;10179;42.640;23.312;2022-10-26T10:55:20;94210.81;;;23.90;35.02
20037;BME280;10179;42.640;23.312;2022-10-26T10:58:00;94250.44;;;23.98;35.30
20037;BME280;10179;42.640;23.312;2022-10-26T11:00:30;94252.31;;;23.98;35.51
20037;BME280;10179;42.640;23.312;2022-10-26T11:09:02;94235.06;;;24.18;35.55
20037;BME280;10179;42.640;23.312;2022-10-26T11:14:11;94228.28;;;24.07;35.29
20037;BME280;10179;42.640;23.312;2022-10-26T11:16:42;94215.41;;;23.90;35.35
20037;BME280;10179;42.640;23.312;2022-10-26T11:19:17;94230.53;;;23.99;35.29
20037;BME280;10179;42.640;23.312;2022-10-26T11:21:48;94219.66;;;23.77;35.42
20037;BME280;10179;42.640;23.312;2022-10-26T11:27:16;94230.91;;;23.93;35.10
20037;BME280;10179;42.640;23.312;2022-10-26T11:43:41;94218.69;;;24.00;34.14
20037;BME280;10179;42.640;23.312;2022-10-26T11:46:25;94223.06;;;23.96;33.97
20037;BME280;10179;42.640;23.312;2022-10-26T11:51:40;94223.66;;;23.93;33.63
20037;BME280;10179;42.640;23.312;2022-10-26T11:54:12;94214.53;;;23.94;32.96
20037;BME280;10179;42.640;23.312;2022-10-26T11:56:46;94213.97;;;24.11;32.38
20037;BME280;10179;42.640;23.312;2022-10-26T11:59:17;94217.94;;;24.14;31.66
20037;BME280;10179;42.640;23.312;2022-10-26T12:01:45;94188.69;;;23.98;31.60
20037;BME280;10179;42.640;23.312;2022-10-26T12:04:10;94208.78;;;24.15;31.41
20037;BME280;10179;42.640;23.312;2022-10-26T12:06:36;94208.22;;;24.18;31.65
20037;BME280;10179;42.640;23.312;2022-10-26T12:09:03;94210.22;;;24.26;31.74
20037;BME280;10179;42.640;23.312;2022-10-26T12:12:00;94211.53;;;24.42;31.11
20037;BME280;10179;42.640;23.312;2022-10-26T12:14:38;94189.94;;;24.20;30.81
20037;BME280;10179;42.640;23.312;2022-10-26T12:17:09;94210.84;;;24.37;30.42
20037;BME280;10179;42.640;23.312;2022-10-26T12:20:00;94203.69;;;24.46;30.66
20037;BME280;10179;42.640;23.312;2022-10-26T12:22:32;94206.47;;;24.41;30.50
20037;BME280;10179;42.640;23.312;2022-10-26T12:35:27;94182.69;;;24.34;30.06
20037;BME280;10179;42.640;23.312;2022-10-26T12:37:48;94200.13;;;24.50;30.16
20037;BME280;10179;42.640;23.312;2022-10-26T12:42:54;94201.13;;;24.55;30.08
20037;BME280;10179;42.640;23.312;2022-10-26T12:45:20;94201.91;;;24.55;29.65
20037;BME280;10179;42.640;23.312;2022-10-26T13:00:27;94215.75;;;24.48;29.33
20037;BME280;10179;42.640;23.312;2022-10-26T13:08:10;94212.06;;;24.44;28.67
20037;BME280;10179;42.640;23.312;2022-10-26T13:10:40;94209.41;;;24.39;28.50
20037;BME280;10179;42.640;23.312;2022-10-26T13:13:20;94197.47;;;24.32;28.27
20037;BME280;10179;42.640;23.312;2022-10-26T13:15:55;94211.84;;;24.41;28.08
20037;BME280;10179;42.640;23.312;2022-10-26T13:18:21;94217.00;;;24.37;27.54
20037;BME280;10179;42.640;23.312;2022-10-26T13:21:03;94206.69;;;24.44;27.25
20037;BME280;10179;42.640;23.312;2022-10-26T13:23:34;94189.34;;;24.23;27.22
20037;BME280;10179;42.640;23.312;2022-10-26T13:26:12;94209.63;;;24.15;26.97
20037;BME280;10179;42.640;23.312;2022-10-26T13:34:15;94220.59;;;24.46;26.42
20037;BME280;10179;42.640;23.312;2022-10-26T13:42:30;94208.59;;;24.44;26.51
20037;BME280;10179;42.640;23.312;2022-10-26T13:45:02;94224.78;;;24.52;26.39
20037;BME280;10179;42.640;23.312;2022-10-26T13:50:50;94236.03;;;24.55;26.10
20037;BME280;10179;42.640;23.312;2022-10-26T13:53:21;94228.38;;;24.75;26.04
20037;BME280;10179;42.640;23.312;2022-10-26T13:55:52;94230.34;;;24.56;25.82
20037;BME280;10179;42.640;23.312;2022-10-26T13:58:31;94219.22;;;24.49;25.79
20037;BME280;10179;42.640;23.312;2022-10-26T14:03:28;94181.94;;;24.15;25.85
20037;BME280;10179;42.640;23.312;2022-10-26T14:05:53;94232.56;;;24.40;26.05
20037;BME280;10179;42.640;23.312;2022-10-26T14:08:20;94239.91;;;24.48;26.05
20037;BME280;10179;42.640;23.312;2022-10-26T14:10:52;94097.47;;;23.66;26.59
20037;BME280;10179;42.640;23.312;2022-10-26T14:13:21;94235.91;;;24.46;26.64
20037;BME280;10179;42.640;23.312;2022-10-26T14:15:47;94238.91;;;24.44;26.72
20037;BME280;10179;42.640;23.312;2022-10-26T14:18:18;94210.41;;;24.16;26.80
20037;BME280;10179;42.640;23.312;2022-10-26T14:21:02;94245.38;;;24.43;27.48
20037;BME280;10179;42.640;23.312;2022-10-26T14:23:32;94239.13;;;24.62;27.07
20037;BME280;10179;42.640;23.312;2022-10-26T14:25:58;94219.66;;;24.23;27.42
20037;BME280;10179;42.640;23.312;2022-10-26T14:28:29;94240.84;;;24.25;27.67
20037;BME280;10179;42.640;23.312;2022-10-26T14:31:10;94245.63;;;24.28;27.67
20037;BME280;10179;42.640;23.312;2022-10-26T14:33:36;94108.78;;;23.30;28.19
20037;BME280;10179;42.640;23.312;2022-10-26T14:36:02;94226.47;;;24.02;28.16
20037;BME280;10179;42.640;23.312;2022-10-26T14:38:31;94226.84;;;23.95;28.29
20037;BME280;10179;42.640;23.312;2022-10-26T14:41:00;94132.44;;;23.28;28.32
20037;BME280;10179;42.640;23.312;2022-10-26T14:43:26;94169.97;;;23.28;28.31
20037;BME280;10179;42.640;23.312;2022-10-26T14:45:52;94183.28;;;23.33;28.48
20037;BME280;10179;42.640;23.312;2022-10-26T14:48:21;94211.47;;;23.49;28.67
20037;BME280;10179;42.640;23.312;2022-10-26T14:53:33;94273.44;;;23.67;29.39
20037;BME280;10179;42.640;23.312;2022-10-26T14:55:59;93962.72;;;21.67;29.19
20037;BME280;10179;42.640;23.312;2022-10-26T14:58:28;94257.84;;;23.50;29.01
20037;BME280;10179;42.640;23.312;2022-10-26T15:03:50;94259.94;;;23.34;29.34
20037;BME280;10179;42.640;23.312;2022-10-26T15:08:55;94264.19;;;23.16;29.66
20037;BME280;10179;42.640;23.312;2022-10-26T15:11:22;94256.50;;;23.09;29.57
20037;BME280;10179;42.640;23.312;2022-10-26T15:13:47;94258.97;;;23.06;29.54
20037;BME280;10179;42.640;23.312;2022-10-26T15:16:18;93971.53;;;21.15;29.54
20037;BME280;10179;42.640;23.312;2022-10-26T15:18:46;94239.19;;;22.78;30.08
20037;BME280;10179;42.640;23.312;2022-10-26T15:21:23;94239.78;;;22.75;30.11
20037;BME280;10179;42.640;23.312;2022-10-26T15:23:50;94276.06;;;22.86;30.38
20037;BME280;10179;42.640;23.312;2022-10-26T15:26:16;94294.28;;;22.84;30.18
20037;BME280;10179;42.640;23.312;2022-10-26T15:28:42;94286.34;;;22.79;30.10